Cuaca Aktual Bandara Mali

Waktu Pengamatan : 2022-06-29 11:00:00 WITA


DAY-mRA
Hujan ringan
Suhu Udara
29 °C
Titik Embun
24 °C

Tekanan Udara 1009 hPa
Jarak Pandang 8.0 km

Timur
Arah Angin
dari Timur
Kec. Angin
5.6 km/jam
METAR Terkini : METAR WATM 290300Z 07003KT 8000 -RA SCT017 BKN090 29/24 Q1009=